createdAt,value
2018-01-12T00:00:39.824Z,0
2018-01-12T00:01:50.105Z,0
2018-01-12T00:03:00.242Z,0
2018-01-12T00:04:10.106Z,0
2018-01-12T00:05:20.284Z,0
2018-01-12T00:06:30.499Z,0
2018-01-12T00:07:40.640Z,0
2018-01-12T00:08:50.772Z,0
2018-01-12T00:10:00.948Z,0
2018-01-12T00:11:11.111Z,0
2018-01-12T00:12:21.236Z,0
2018-01-12T00:13:31.349Z,0
2018-01-12T00:14:41.513Z,0
2018-01-12T00:15:51.685Z,0
2018-01-12T00:17:01.920Z,0
2018-01-12T00:18:12.098Z,0
2018-01-12T00:19:22.379Z,0
2018-01-12T00:20:32.599Z,0
2018-01-12T00:21:42.778Z,0
2018-01-12T00:22:52.976Z,0
2018-01-12T00:24:03.257Z,0
2018-01-12T00:25:13.507Z,0
2018-01-12T00:26:23.658Z,0
2018-01-12T00:27:33.795Z,0
2018-01-12T00:28:44.025Z,0
2018-01-12T00:29:53.955Z,0
2018-01-12T00:31:04.095Z,0
2018-01-12T00:32:14.288Z,0
2018-01-12T00:33:24.486Z,0
2018-01-12T00:34:34.621Z,0
2018-01-12T00:35:44.984Z,0
2018-01-12T00:36:55.144Z,0
2018-01-12T00:38:04.912Z,0
2018-01-12T00:39:15.176Z,0
2018-01-12T00:40:25.406Z,0
2018-01-12T00:41:35.266Z,0
2018-01-12T00:42:45.422Z,0
2018-01-12T00:43:55.559Z,0
2018-01-12T00:45:05.693Z,0
2018-01-12T00:46:15.815Z,0
2018-01-12T00:47:25.943Z,0
2018-01-12T00:48:36.082Z,0
2018-01-12T00:49:46.241Z,0
2018-01-12T00:50:56.390Z,0
2018-01-12T00:52:06.298Z,0
2018-01-12T00:53:16.440Z,0
2018-01-12T00:54:26.623Z,0
2018-01-12T00:55:36.793Z,0
2018-01-12T00:56:47.003Z,0
2018-01-12T00:57:57.243Z,0
2018-01-12T00:59:07.419Z,0
2018-01-12T01:00:17.528Z,0
2018-01-12T01:01:27.653Z,0
2018-01-12T01:02:37.781Z,0
2018-01-12T01:03:47.909Z,0
2018-01-12T01:04:58.170Z,0
2018-01-12T01:06:08.351Z,0
2018-01-12T01:07:18.211Z,0
2018-01-12T01:08:28.411Z,0
2018-01-12T01:09:38.542Z,0
2018-01-12T01:10:48.695Z,0
2018-01-12T01:11:58.923Z,0
2018-01-12T01:13:09.089Z,0
2018-01-12T01:14:19.317Z,0
2018-01-12T01:15:29.470Z,0
2018-01-12T01:16:39.213Z,0
2018-01-12T01:17:49.041Z,0
2018-01-12T01:18:59.270Z,0
2018-01-12T01:20:09.416Z,0
2018-01-12T01:21:19.554Z,0
2018-01-12T01:22:29.693Z,0
2018-01-12T01:23:39.806Z,0
2018-01-12T01:24:50.066Z,0
2018-01-12T01:26:00.215Z,0
2018-01-12T01:27:10.135Z,0
2018-01-12T01:28:20.292Z,0
2018-01-12T01:29:30.412Z,0
2018-01-12T01:30:40.672Z,0
2018-01-12T01:31:50.554Z,0
2018-01-12T01:33:00.732Z,0
2018-01-12T01:34:10.631Z,0
2018-01-12T01:35:20.810Z,0
2018-01-12T01:36:30.995Z,0
2018-01-12T01:37:40.900Z,0
2018-01-12T01:38:51.120Z,0
2018-01-12T01:40:01.280Z,0
2018-01-12T01:41:11.412Z,0
2018-01-12T01:42:21.549Z,0
2018-01-12T01:43:31.665Z,0
2018-01-12T01:44:41.798Z,0
2018-01-12T01:45:52.000Z,0
2018-01-12T01:47:02.207Z,0
2018-01-12T01:48:12.329Z,0
2018-01-12T01:49:22.187Z,0
2018-01-12T01:50:32.339Z,0
2018-01-12T01:51:42.642Z,0
2018-01-12T01:52:52.806Z,0
2018-01-12T01:54:02.999Z,0
2018-01-12T01:55:13.158Z,0
2018-01-12T01:56:23.383Z,0
2018-01-12T01:57:33.505Z,0
2018-01-12T01:58:43.661Z,0
2018-01-12T01:59:53.793Z,0
2018-01-12T02:01:03.917Z,0
2018-01-12T02:02:14.050Z,0
2018-01-12T02:03:24.291Z,0
2018-01-12T02:04:34.422Z,0
2018-01-12T02:05:44.544Z,0
2018-01-12T02:06:54.654Z,0
2018-01-12T02:08:04.758Z,0
2018-01-12T02:09:14.934Z,0
2018-01-12T02:10:25.053Z,0
2018-01-12T02:11:35.291Z,0
2018-01-12T02:12:45.401Z,0
2018-01-12T02:13:55.518Z,0
2018-01-12T02:15:05.710Z,0
2018-01-12T02:16:15.890Z,0
2018-01-12T02:17:26.033Z,0
2018-01-12T02:18:36.199Z,0
2018-01-12T02:19:46.385Z,0
2018-01-12T02:20:56.607Z,0
2018-01-12T02:22:06.879Z,0
2018-01-12T02:23:16.756Z,0
2018-01-12T02:24:26.898Z,0
2018-01-12T02:25:36.757Z,0
2018-01-12T02:26:46.865Z,0
2018-01-12T02:27:57.011Z,0
2018-01-12T02:29:07.180Z,0
2018-01-12T02:30:17.537Z,0
2018-01-12T02:31:27.777Z,0
2018-01-12T02:32:37.995Z,0
2018-01-12T02:33:48.144Z,0
2018-01-12T02:34:58.074Z,0
2018-01-12T02:36:08.188Z,0
2018-01-12T02:37:18.328Z,0
2018-01-12T02:38:28.565Z,0
2018-01-12T02:39:38.705Z,0
2018-01-12T02:40:48.855Z,0
2018-01-12T02:41:59.003Z,0
2018-01-12T02:43:08.516Z,0
2018-01-12T02:44:18.655Z,0
2018-01-12T02:45:28.884Z,0
2018-01-12T02:46:39.098Z,0
2018-01-12T02:47:49.206Z,0
2018-01-12T02:48:59.315Z,0
2018-01-12T02:50:09.449Z,0
2018-01-12T02:51:19.589Z,0
2018-01-12T02:52:29.871Z,0
2018-01-12T02:53:40.011Z,0
2018-01-12T02:54:50.252Z,0
2018-01-12T02:56:00.464Z,0
2018-01-12T02:57:10.652Z,0
2018-01-12T02:58:20.878Z,0
2018-01-12T02:59:31.027Z,0
2018-01-12T03:00:40.916Z,0
2018-01-12T03:01:51.027Z,0
2018-01-12T03:03:01.209Z,0
2018-01-12T03:04:11.396Z,0
2018-01-12T03:05:21.549Z,0
2018-01-12T03:06:31.650Z,0
2018-01-12T03:07:41.775Z,0
2018-01-12T03:08:51.890Z,0
2018-01-12T03:10:02.027Z,0
2018-01-12T03:11:12.133Z,0
2018-01-12T03:12:22.248Z,0
2018-01-12T03:13:32.358Z,0
2018-01-12T03:14:42.510Z,0
2018-01-12T03:15:52.669Z,0
2018-01-12T03:17:03.036Z,0
2018-01-12T03:18:13.184Z,0
2018-01-12T03:19:23.332Z,0
2018-01-12T03:20:33.075Z,0
2018-01-12T03:21:43.255Z,0
2018-01-12T03:22:53.388Z,0
2018-01-12T03:24:04.480Z,0
2018-01-12T03:25:14.592Z,0
2018-01-12T03:26:24.742Z,0
2018-01-12T03:27:34.888Z,0
2018-01-12T03:28:45.142Z,0
2018-01-12T03:29:55.324Z,0
2018-01-12T03:31:05.532Z,0
2018-01-12T03:32:15.388Z,0
2018-01-12T03:33:25.638Z,0
2018-01-12T03:34:35.594Z,0
2018-01-12T03:35:45.717Z,0
2018-01-12T03:36:55.934Z,0
2018-01-12T03:38:06.129Z,0
2018-01-12T03:39:16.292Z,0
2018-01-12T03:40:26.452Z,0
2018-01-12T03:41:36.695Z,0
2018-01-12T03:42:46.873Z,0
2018-01-12T03:43:57.046Z,0
2018-01-12T03:45:07.235Z,0
2018-01-12T03:46:17.121Z,0
2018-01-12T03:47:27.328Z,0
2018-01-12T03:48:37.466Z,0
2018-01-12T03:49:47.676Z,0
2018-01-12T03:50:58.182Z,0
2018-01-12T03:52:08.294Z,0
2018-01-12T03:53:18.249Z,0
2018-01-12T03:54:28.523Z,0
2018-01-12T03:55:38.781Z,0
2018-01-12T03:56:48.902Z,0
2018-01-12T03:57:59.023Z,0
2018-01-12T03:59:09.169Z,0
2018-01-12T04:00:19.286Z,0
2018-01-12T04:01:29.445Z,0
2018-01-12T04:02:39.606Z,0
2018-01-12T04:03:49.757Z,0
2018-01-12T04:04:59.896Z,0
2018-01-12T04:06:10.074Z,0
2018-01-12T04:07:20.192Z,0
2018-01-12T04:08:30.289Z,0
2018-01-12T04:09:40.484Z,0
2018-01-12T04:10:50.664Z,0
2018-01-12T04:12:00.790Z,0
2018-01-12T04:13:10.974Z,0
2018-01-12T04:14:21.117Z,0
2018-01-12T04:15:31.219Z,0
2018-01-12T04:16:41.339Z,0
2018-01-12T04:17:51.561Z,0
2018-01-12T04:19:01.761Z,0
2018-01-12T04:20:11.882Z,0
2018-01-12T04:21:22.007Z,0
2018-01-12T04:22:32.107Z,0
2018-01-12T04:23:42.249Z,0
2018-01-12T04:24:52.111Z,0
2018-01-12T04:26:02.261Z,0
2018-01-12T04:27:12.423Z,0
2018-01-12T04:28:22.539Z,0
2018-01-12T04:29:32.648Z,0
2018-01-12T04:30:42.746Z,0
2018-01-12T04:31:52.845Z,0
2018-01-12T04:33:03.005Z,0
2018-01-12T04:34:12.586Z,0
2018-01-12T04:35:22.793Z,0
2018-01-12T04:36:32.898Z,0
2018-01-12T04:37:43.028Z,0
2018-01-12T04:38:52.785Z,0
2018-01-12T04:40:02.908Z,0
2018-01-12T04:41:13.035Z,0
2018-01-12T04:42:23.213Z,0
2018-01-12T04:43:33.327Z,0
2018-01-12T04:44:43.434Z,0
2018-01-12T04:45:53.317Z,0
2018-01-12T04:47:03.472Z,0
2018-01-12T04:48:13.630Z,0
2018-01-12T04:49:23.814Z,0
2018-01-12T04:50:34.025Z,0
2018-01-12T04:51:45.154Z,0
2018-01-12T04:52:55.040Z,0
2018-01-12T04:54:05.169Z,0
2018-01-12T04:55:15.092Z,0
2018-01-12T04:56:25.222Z,0
2018-01-12T04:57:35.433Z,0
2018-01-12T04:58:45.582Z,0
2018-01-12T04:59:55.739Z,0
2018-01-12T05:01:05.881Z,0
2018-01-12T05:02:15.768Z,0
2018-01-12T05:03:25.900Z,0
2018-01-12T05:04:35.812Z,0
2018-01-12T05:05:45.952Z,0
2018-01-12T05:06:56.139Z,0
2018-01-12T05:08:06.309Z,0
2018-01-12T05:09:16.555Z,0
2018-01-12T05:10:26.732Z,0
2018-01-12T05:11:36.627Z,0
2018-01-12T05:12:46.826Z,0
2018-01-12T05:13:56.979Z,0
2018-01-12T05:15:07.115Z,0
2018-01-12T05:16:17.326Z,0
2018-01-12T05:17:27.507Z,0
2018-01-12T05:18:37.642Z,0
2018-01-12T05:19:47.889Z,0
2018-01-12T05:20:58.034Z,0
2018-01-12T05:22:08.171Z,0
2018-01-12T05:23:18.085Z,0
2018-01-12T05:24:28.204Z,0
2018-01-12T05:25:38.315Z,0
2018-01-12T05:26:48.423Z,0
2018-01-12T05:27:58.652Z,0
2018-01-12T05:29:08.850Z,0
2018-01-12T05:30:18.982Z,0
2018-01-12T05:31:29.202Z,0
2018-01-12T05:32:39.420Z,0
2018-01-12T05:33:48.912Z,0
2018-01-12T05:34:59.090Z,0
2018-01-12T05:36:09.214Z,0
2018-01-12T05:37:19.112Z,0
2018-01-12T05:38:29.259Z,0
2018-01-12T05:39:39.370Z,0
2018-01-12T05:40:49.558Z,0
2018-01-12T05:41:59.687Z,0
2018-01-12T05:43:09.849Z,0
2018-01-12T05:44:20.619Z,0
2018-01-12T05:45:30.831Z,0
2018-01-12T05:46:41.161Z,0
2018-01-12T05:47:51.310Z,0
2018-01-12T05:49:01.651Z,0
2018-01-12T05:50:11.858Z,0
2018-01-12T05:51:22.030Z,0
2018-01-12T05:52:32.158Z,0
2018-01-12T05:53:42.282Z,0
2018-01-12T05:54:52.425Z,0
2018-01-12T05:56:02.530Z,0
2018-01-12T05:57:12.336Z,0
2018-01-12T05:58:22.482Z,0
2018-01-12T05:59:32.748Z,0
2018-01-12T06:00:42.886Z,0
2018-01-12T06:01:53.074Z,0
2018-01-12T06:03:03.333Z,0
2018-01-12T06:04:13.456Z,0
2018-01-12T06:05:23.649Z,0
2018-01-12T06:06:33.873Z,0
2018-01-12T06:07:44.135Z,0
2018-01-12T06:08:54.411Z,0
2018-01-12T06:10:04.627Z,0
2018-01-12T06:11:14.781Z,0
2018-01-12T06:12:24.700Z,0
2018-01-12T06:13:34.863Z,0
2018-01-12T06:14:44.989Z,0
2018-01-12T06:15:55.213Z,0
2018-01-12T06:17:05.400Z,0
2018-01-12T06:18:15.638Z,0
2018-01-12T06:19:25.783Z,0
2018-01-12T06:20:36.028Z,0
2018-01-12T06:21:46.160Z,0
2018-01-12T06:22:56.266Z,0
2018-01-12T06:24:06.432Z,0
2018-01-12T06:25:16.301Z,0
2018-01-12T06:26:26.411Z,0
2018-01-12T06:27:36.555Z,0
2018-01-12T06:28:46.758Z,0
2018-01-12T06:29:56.949Z,0
2018-01-12T06:31:07.162Z,0
2018-01-12T06:32:17.388Z,0
2018-01-12T06:33:27.508Z,0
2018-01-12T06:34:37.649Z,0
2018-01-12T06:35:47.767Z,0
2018-01-12T06:36:57.878Z,0
2018-01-12T06:38:08.028Z,0
2018-01-12T06:39:18.229Z,0
2018-01-12T06:40:29.474Z,0
2018-01-12T06:41:39.627Z,0
2018-01-12T06:42:49.861Z,0
2018-01-12T06:43:59.998Z,0
2018-01-12T06:45:10.244Z,0
2018-01-12T06:46:20.685Z,0
2018-01-12T06:47:30.843Z,0
2018-01-12T06:48:40.961Z,4
2018-01-12T06:49:51.145Z,4
2018-01-12T06:51:01.532Z,0
2018-01-12T06:52:11.691Z,0
2018-01-12T06:53:21.930Z,4
2018-01-12T06:54:32.081Z,0
2018-01-12T06:55:42.003Z,4
2018-01-12T06:56:51.620Z,4
2018-01-12T06:58:01.742Z,4
2018-01-12T06:59:11.929Z,4
2018-01-12T07:00:22.207Z,4
2018-01-12T07:01:32.489Z,4
2018-01-12T07:02:42.670Z,4
2018-01-12T07:03:52.849Z,8
2018-01-12T07:05:03.109Z,8
2018-01-12T07:06:13.259Z,12
2018-01-12T07:07:23.424Z,12
2018-01-12T07:08:33.546Z,16
2018-01-12T07:09:43.668Z,16
2018-01-12T07:10:53.810Z,16
2018-01-12T07:12:03.977Z,20
2018-01-12T07:13:14.097Z,20
2018-01-12T07:14:24.249Z,20
2018-01-12T07:15:34.386Z,24
2018-01-12T07:16:44.514Z,32
2018-01-12T07:17:54.666Z,40
2018-01-12T07:19:04.828Z,40
2018-01-12T07:20:15.046Z,48
2018-01-12T07:21:24.915Z,48
2018-01-12T07:22:35.054Z,52
2018-01-12T07:23:45.204Z,52
2018-01-12T07:24:55.355Z,52
2018-01-12T07:26:05.318Z,60
2018-01-12T07:27:15.479Z,76
2018-01-12T07:28:25.666Z,84
2018-01-12T07:29:36.024Z,88
2018-01-12T07:30:46.145Z,92
2018-01-12T07:31:56.272Z,100
2018-01-12T07:33:06.536Z,108
2018-01-12T07:34:16.799Z,124
2018-01-12T07:35:26.942Z,132
2018-01-12T07:36:37.097Z,144
2018-01-12T07:37:47.325Z,148
2018-01-12T07:38:57.854Z,152
2018-01-12T07:40:07.978Z,168
2018-01-12T07:41:18.117Z,184
2018-01-12T07:42:28.248Z,200
2018-01-12T07:43:38.469Z,216
2018-01-12T07:44:48.680Z,216
2018-01-12T07:45:58.934Z,216
2018-01-12T07:47:09.095Z,232
2018-01-12T07:48:19.229Z,256
2018-01-12T07:49:29.355Z,284
2018-01-12T07:50:39.457Z,316
2018-01-12T07:51:49.327Z,340
2018-01-12T07:52:59.480Z,356
2018-01-12T07:54:09.603Z,364
2018-01-12T07:55:19.704Z,364
2018-01-12T07:56:30.024Z,356
2018-01-12T07:57:40.237Z,348
2018-01-12T07:58:50.383Z,376
2018-01-12T08:00:00.614Z,432
2018-01-12T08:01:10.770Z,504
2018-01-12T08:02:21.044Z,524
2018-01-12T08:03:31.314Z,508
2018-01-12T08:04:41.455Z,456
2018-01-12T08:05:51.611Z,420
2018-01-12T08:07:01.716Z,420
2018-01-12T08:08:11.636Z,400
2018-01-12T08:09:21.921Z,372
2018-01-12T08:10:32.091Z,348
2018-01-12T08:11:42.302Z,356
2018-01-12T08:12:52.410Z,384
2018-01-12T08:14:02.524Z,400
2018-01-12T08:15:12.635Z,420
2018-01-12T08:16:22.782Z,444
2018-01-12T08:17:32.989Z,456
2018-01-12T08:18:43.219Z,480
2018-01-12T08:19:53.365Z,516
2018-01-12T08:21:03.618Z,540
2018-01-12T08:22:13.875Z,544
2018-01-12T08:23:24.115Z,528
2018-01-12T08:24:34.259Z,540
2018-01-12T08:25:44.516Z,540
2018-01-12T08:26:54.711Z,516
2018-01-12T08:28:04.714Z,520
2018-01-12T08:29:14.841Z,520
2018-01-12T08:30:24.995Z,512
2018-01-12T08:31:35.133Z,524
2018-01-12T08:32:45.267Z,524
2018-01-12T08:33:55.498Z,548
2018-01-12T08:35:05.664Z,572
2018-01-12T08:36:15.807Z,604
2018-01-12T08:37:25.946Z,636
2018-01-12T08:38:36.090Z,664
2018-01-12T08:39:46.259Z,688
2018-01-12T08:40:56.486Z,724
2018-01-12T08:42:06.716Z,748
2018-01-12T08:43:16.868Z,732
2018-01-12T08:44:27.038Z,720
2018-01-12T08:45:37.498Z,772
2018-01-12T08:46:47.614Z,784
2018-01-12T08:47:57.776Z,804
2018-01-12T08:49:07.907Z,852
2018-01-12T08:50:18.115Z,936
2018-01-12T08:51:28.035Z,1056
2018-01-12T08:52:38.187Z,1180
2018-01-12T08:53:48.368Z,1248
2018-01-12T08:54:58.508Z,1220
2018-01-12T08:56:08.613Z,1112
2018-01-12T08:57:18.759Z,1008
2018-01-12T08:58:28.951Z,964
2018-01-12T08:59:39.080Z,1008
2018-01-12T09:00:49.251Z,1080
2018-01-12T09:01:59.440Z,1148
2018-01-12T09:03:09.646Z,1124
2018-01-12T09:04:19.841Z,1020
2018-01-12T09:05:30.128Z,980
2018-01-12T09:06:40.360Z,1016
2018-01-12T09:07:50.606Z,1124
2018-01-12T09:09:00.841Z,1316
2018-01-12T09:10:10.988Z,1456
2018-01-12T09:11:21.198Z,1528
2018-01-12T09:12:31.324Z,1428
2018-01-12T09:13:41.495Z,1176
2018-01-12T09:14:51.638Z,952
2018-01-12T09:16:01.766Z,832
2018-01-12T09:17:11.920Z,780
2018-01-12T09:18:22.058Z,760
2018-01-12T09:19:32.256Z,724
2018-01-12T09:20:42.414Z,740
2018-01-12T09:21:52.561Z,748
2018-01-12T09:23:02.667Z,736
2018-01-12T09:24:12.774Z,704
2018-01-12T09:25:22.905Z,700
2018-01-12T09:26:33.052Z,728
2018-01-12T09:27:43.260Z,772
2018-01-12T09:28:53.365Z,832
2018-01-12T09:30:03.496Z,792
2018-01-12T09:31:13.342Z,736
2018-01-12T09:32:24.415Z,708
2018-01-12T09:33:34.581Z,792
2018-01-12T09:34:44.760Z,916
2018-01-12T09:35:54.961Z,1108
2018-01-12T09:37:05.088Z,1180
2018-01-12T09:38:15.280Z,1216
2018-01-12T09:39:26.501Z,1192
2018-01-12T09:40:36.780Z,1172
2018-01-12T09:41:47.035Z,1256
2018-01-12T09:42:57.242Z,1236
2018-01-12T09:44:07.538Z,1216
2018-01-12T09:45:17.741Z,1144
2018-01-12T09:46:27.878Z,1024
2018-01-12T09:47:38.042Z,920
2018-01-12T09:48:47.928Z,884
2018-01-12T09:49:58.060Z,900
2018-01-12T09:51:08.221Z,1028
2018-01-12T09:52:18.429Z,1128
2018-01-12T09:53:28.596Z,1192
2018-01-12T09:54:38.802Z,1288
2018-01-12T09:55:48.981Z,1420
2018-01-12T09:56:59.142Z,1512
2018-01-12T09:58:09.284Z,1504
2018-01-12T09:59:19.406Z,1460
2018-01-12T10:00:29.572Z,1432
2018-01-12T10:01:39.817Z,1584
2018-01-12T10:02:49.681Z,1712
2018-01-12T10:03:59.803Z,1712
2018-01-12T10:05:09.956Z,1680
2018-01-12T10:06:20.186Z,1672
2018-01-12T10:07:30.324Z,1696
2018-01-12T10:08:40.471Z,1776
2018-01-12T10:09:50.634Z,2036
2018-01-12T10:11:00.839Z,2032
2018-01-12T10:12:10.952Z,2060
2018-01-12T10:13:21.092Z,2080
2018-01-12T10:14:31.256Z,1960
2018-01-12T10:15:41.481Z,1888
2018-01-12T10:16:51.653Z,1816
2018-01-12T10:18:01.949Z,1728
2018-01-12T10:19:12.092Z,1656
2018-01-12T10:20:22.340Z,1840
2018-01-12T10:21:32.509Z,2044
2018-01-12T10:22:42.696Z,2244
2018-01-12T10:23:52.813Z,2144
2018-01-12T10:25:02.729Z,1880
2018-01-12T10:26:12.880Z,1804
2018-01-12T10:27:23.020Z,1832
2018-01-12T10:28:33.167Z,2052
2018-01-12T10:29:43.308Z,2124
2018-01-12T10:30:53.119Z,2012
2018-01-12T10:32:03.251Z,2012
2018-01-12T10:33:13.436Z,2084
2018-01-12T10:34:23.620Z,2052
2018-01-12T10:35:33.779Z,2124
2018-01-12T10:36:44.018Z,2160
2018-01-12T10:37:54.194Z,2272
2018-01-12T10:39:04.343Z,2056
2018-01-12T10:40:14.593Z,2024
2018-01-12T10:41:24.724Z,1828
2018-01-12T10:42:34.908Z,1752
2018-01-12T10:43:45.037Z,1652
2018-01-12T10:44:55.206Z,1688
2018-01-12T10:46:05.321Z,1616
2018-01-12T10:47:15.518Z,1600
2018-01-12T10:48:25.660Z,1568
2018-01-12T10:49:35.922Z,1584
2018-01-12T10:50:46.158Z,1688
2018-01-12T10:51:56.305Z,1756
2018-01-12T10:53:06.487Z,1760
2018-01-12T10:54:16.627Z,1944
2018-01-12T10:55:26.726Z,1860
2018-01-12T10:56:36.901Z,1868
2018-01-12T10:57:47.055Z,1740
2018-01-12T10:58:57.181Z,1864
2018-01-12T11:00:07.327Z,1844
2018-01-12T11:01:17.456Z,1928
2018-01-12T11:02:27.588Z,1944
2018-01-12T11:03:37.727Z,2256
2018-01-12T11:04:47.891Z,2228
2018-01-12T11:05:58.115Z,1940
2018-01-12T11:07:08.305Z,1860
2018-01-12T11:08:18.504Z,1876
2018-01-12T11:09:28.692Z,1828
2018-01-12T11:10:38.847Z,1856
2018-01-12T11:11:48.988Z,1868
2018-01-12T11:12:59.200Z,1892
2018-01-12T11:14:09.425Z,1976
2018-01-12T11:15:19.554Z,2044
2018-01-12T11:16:29.769Z,2012
2018-01-12T11:17:39.918Z,2060
2018-01-12T11:18:50.056Z,2144
2018-01-12T11:20:00.250Z,2248
2018-01-12T11:21:10.514Z,2280
2018-01-12T11:22:20.665Z,2300
2018-01-12T11:23:30.794Z,2200
2018-01-12T11:24:40.918Z,1964
2018-01-12T11:25:51.081Z,1968
2018-01-12T11:27:01.225Z,1992
2018-01-12T11:28:11.406Z,2032
2018-01-12T11:29:21.605Z,2148
2018-01-12T11:30:31.831Z,2240
2018-01-12T11:31:41.982Z,2460
2018-01-12T11:32:52.131Z,2408
2018-01-12T11:34:02.279Z,2300
2018-01-12T11:35:12.413Z,2380
2018-01-12T11:36:22.563Z,2496
2018-01-12T11:37:32.708Z,2404
2018-01-12T11:38:42.849Z,2428
2018-01-12T11:39:52.995Z,2464
2018-01-12T11:41:03.123Z,2468
2018-01-12T11:42:13.296Z,2664
2018-01-12T11:43:23.174Z,2760
2018-01-12T11:44:33.307Z,2764
2018-01-12T11:45:43.448Z,2644
2018-01-12T11:46:53.587Z,2496
2018-01-12T11:48:03.738Z,2216
2018-01-12T11:49:13.926Z,2124
2018-01-12T11:50:24.126Z,2172
2018-01-12T11:51:34.250Z,2228
2018-01-12T11:52:44.508Z,2072
2018-01-12T11:53:54.751Z,1988
2018-01-12T11:55:04.907Z,1860
2018-01-12T11:56:15.131Z,1584
2018-01-12T11:57:25.025Z,1560
2018-01-12T11:58:35.212Z,1624
2018-01-12T11:59:45.462Z,1660
2018-01-12T12:00:55.597Z,1752
2018-01-12T12:02:05.872Z,1784
2018-01-12T12:03:16.113Z,1704
2018-01-12T12:04:26.292Z,1564
2018-01-12T12:05:36.563Z,1476
2018-01-12T12:06:46.756Z,1440
2018-01-12T12:07:56.635Z,1380
2018-01-12T12:09:06.805Z,1420
2018-01-12T12:10:16.664Z,1384
2018-01-12T12:11:26.793Z,1292
2018-01-12T12:12:36.710Z,1192
2018-01-12T12:13:46.839Z,1196
2018-01-12T12:14:56.981Z,1268
2018-01-12T12:16:07.189Z,1360
2018-01-12T12:17:17.327Z,1392
2018-01-12T12:18:27.573Z,1360
2018-01-12T12:19:37.829Z,1276
2018-01-12T12:20:48.013Z,1152
2018-01-12T12:21:58.214Z,1152
2018-01-12T12:23:08.340Z,1116
2018-01-12T12:24:18.581Z,1084
2018-01-12T12:25:28.808Z,1080
2018-01-12T12:26:38.760Z,1056
2018-01-12T12:27:48.961Z,972
2018-01-12T12:28:59.126Z,884
2018-01-12T12:30:09.326Z,836
2018-01-12T12:31:20.446Z,828
2018-01-12T12:32:30.712Z,872
2018-01-12T12:33:40.945Z,924
2018-01-12T12:34:50.815Z,1036
2018-01-12T12:36:00.980Z,1208
2018-01-12T12:37:11.132Z,1276
2018-01-12T12:38:21.269Z,1264
2018-01-12T12:39:31.437Z,1188
2018-01-12T12:40:41.720Z,1080
2018-01-12T12:41:52.029Z,972
2018-01-12T12:43:02.199Z,948
2018-01-12T12:44:12.371Z,1064
2018-01-12T12:45:22.631Z,1216
2018-01-12T12:46:32.811Z,1340
2018-01-12T12:47:42.723Z,1420
2018-01-12T12:48:52.854Z,1440
2018-01-12T12:50:03.047Z,1380
2018-01-12T12:51:13.247Z,1264
2018-01-12T12:52:23.486Z,1200
2018-01-12T12:53:33.725Z,1176
2018-01-12T12:54:43.931Z,1256
2018-01-12T12:55:54.161Z,1416
2018-01-12T12:57:04.058Z,1432
2018-01-12T12:58:14.209Z,1548
2018-01-12T12:59:24.387Z,1588
2018-01-12T13:00:34.503Z,1528
2018-01-12T13:01:44.720Z,1408
2018-01-12T13:02:54.856Z,1308
2018-01-12T13:04:05.041Z,1276
2018-01-12T13:05:14.818Z,1208
2018-01-12T13:06:25.219Z,1176
2018-01-12T13:07:35.440Z,1100
2018-01-12T13:08:45.620Z,1060
2018-01-12T13:09:55.948Z,1024
2018-01-12T13:11:06.143Z,980
2018-01-12T13:12:16.374Z,900
2018-01-12T13:13:26.500Z,824
2018-01-12T13:14:36.683Z,768
2018-01-12T13:15:46.875Z,728
2018-01-12T13:16:57.017Z,716
2018-01-12T13:18:07.190Z,724
2018-01-12T13:19:17.322Z,760
2018-01-12T13:20:27.243Z,780
2018-01-12T13:21:37.398Z,808
2018-01-12T13:22:47.606Z,804
2018-01-12T13:23:58.052Z,804
2018-01-12T13:25:08.211Z,844
2018-01-12T13:26:18.345Z,848
2018-01-12T13:27:28.510Z,772
2018-01-12T13:28:38.674Z,752
2018-01-12T13:29:48.809Z,776
2018-01-12T13:30:58.959Z,804
2018-01-12T13:32:09.184Z,824
2018-01-12T13:33:19.427Z,824
2018-01-12T13:34:29.618Z,840
2018-01-12T13:35:39.735Z,844
2018-01-12T13:36:50.043Z,816
2018-01-12T13:37:59.996Z,796
2018-01-12T13:39:10.212Z,724
2018-01-12T13:40:20.329Z,680
2018-01-12T13:41:30.525Z,620
2018-01-12T13:42:40.697Z,580
2018-01-12T13:43:50.840Z,556
2018-01-12T13:45:00.961Z,564
2018-01-12T13:46:11.163Z,580
2018-01-12T13:47:21.425Z,580
2018-01-12T13:48:31.198Z,564
2018-01-12T13:49:41.468Z,572
2018-01-12T13:50:51.657Z,572
2018-01-12T13:52:01.966Z,564
2018-01-12T13:53:12.124Z,584
2018-01-12T13:54:22.267Z,560
2018-01-12T13:55:32.414Z,556
2018-01-12T13:56:42.578Z,520
2018-01-12T13:57:52.768Z,532
2018-01-12T13:59:02.924Z,528
2018-01-12T14:00:13.058Z,496
2018-01-12T14:01:23.223Z,488
2018-01-12T14:02:33.370Z,496
2018-01-12T14:03:43.573Z,532
2018-01-12T14:04:53.824Z,564
2018-01-12T14:06:04.018Z,556
2018-01-12T14:07:14.395Z,488
2018-01-12T14:08:24.560Z,456
2018-01-12T14:09:34.719Z,440
2018-01-12T14:10:44.973Z,428
2018-01-12T14:11:55.148Z,432
2018-01-12T14:13:05.279Z,436
2018-01-12T14:14:15.411Z,436
2018-01-12T14:15:25.580Z,476
2018-01-12T14:16:35.857Z,456
2018-01-12T14:17:45.752Z,436
2018-01-12T14:18:55.957Z,420
2018-01-12T14:20:05.927Z,396
2018-01-12T14:21:16.058Z,392
2018-01-12T14:22:26.211Z,376
2018-01-12T14:23:36.478Z,380
2018-01-12T14:24:46.628Z,368
2018-01-12T14:25:56.531Z,340
2018-01-12T14:27:06.729Z,336
2018-01-12T14:28:16.867Z,320
2018-01-12T14:29:27.079Z,328
2018-01-12T14:30:36.969Z,296
2018-01-12T14:31:47.134Z,304
2018-01-12T14:32:57.342Z,288
2018-01-12T14:34:07.584Z,308
2018-01-12T14:35:17.790Z,324
2018-01-12T14:36:27.940Z,324
2018-01-12T14:37:38.139Z,316
2018-01-12T14:38:48.329Z,296
2018-01-12T14:39:58.567Z,284
2018-01-12T14:41:08.685Z,296
2018-01-12T14:42:18.582Z,292
2018-01-12T14:43:28.784Z,288
2018-01-12T14:44:39.921Z,248
2018-01-12T14:45:50.123Z,220
2018-01-12T14:47:00.408Z,196
2018-01-12T14:48:10.552Z,172
2018-01-12T14:49:20.719Z,160
2018-01-12T14:50:30.872Z,152
2018-01-12T14:51:41.084Z,144
2018-01-12T14:52:51.287Z,136
2018-01-12T14:54:01.461Z,144
2018-01-12T14:55:11.646Z,136
2018-01-12T14:56:21.855Z,132
2018-01-12T14:57:31.994Z,132
2018-01-12T14:58:42.154Z,132
2018-01-12T14:59:52.352Z,128
2018-01-12T15:01:02.502Z,148
2018-01-12T15:02:12.650Z,160
2018-01-12T15:03:22.781Z,172
2018-01-12T15:04:32.982Z,160
2018-01-12T15:05:43.110Z,140
2018-01-12T15:06:53.261Z,128
2018-01-12T15:08:03.433Z,140
2018-01-12T15:09:13.655Z,136
2018-01-12T15:10:23.810Z,128
2018-01-12T15:11:34.007Z,116
2018-01-12T15:12:44.272Z,128
2018-01-12T15:13:54.430Z,108
2018-01-12T15:15:04.694Z,96
2018-01-12T15:16:14.890Z,92
2018-01-12T15:17:25.128Z,88
2018-01-12T15:18:35.268Z,72
2018-01-12T15:19:45.562Z,64
2018-01-12T15:20:55.844Z,60
2018-01-12T15:22:06.008Z,56
2018-01-12T15:23:17.147Z,52
2018-01-12T15:24:27.393Z,52
2018-01-12T15:25:37.671Z,48
2018-01-12T15:26:47.704Z,44
2018-01-12T15:27:57.847Z,44
2018-01-12T15:29:08.015Z,40
2018-01-12T15:30:17.808Z,32
2018-01-12T15:31:27.953Z,32
2018-01-12T15:32:38.154Z,28
2018-01-12T15:33:48.384Z,24
2018-01-12T15:34:58.551Z,20
2018-01-12T15:36:08.739Z,16
2018-01-12T15:37:18.879Z,16
2018-01-12T15:38:29.195Z,12
2018-01-12T15:39:39.431Z,12
2018-01-12T15:40:49.695Z,12
2018-01-12T15:41:59.879Z,12
2018-01-12T15:43:11.048Z,12
2018-01-12T15:44:21.285Z,8
2018-01-12T15:45:31.496Z,8
2018-01-12T15:46:41.735Z,8
2018-01-12T15:47:51.920Z,4
2018-01-12T15:49:02.111Z,4
2018-01-12T15:50:12.387Z,0
2018-01-12T15:51:22.546Z,4
2018-01-12T15:52:32.690Z,0
2018-01-12T15:53:42.738Z,0
2018-01-12T15:54:52.896Z,4
2018-01-12T15:56:03.083Z,4
2018-01-12T15:57:13.300Z,0
2018-01-12T15:58:23.447Z,0
2018-01-12T15:59:33.609Z,0
2018-01-12T16:00:43.849Z,0
2018-01-12T16:01:54.027Z,0
2018-01-12T16:03:04.240Z,0
2018-01-12T16:04:14.405Z,0
2018-01-12T16:05:25.644Z,0
2018-01-12T16:06:35.794Z,0
2018-01-12T16:07:46.244Z,0
2018-01-12T16:08:56.445Z,0
2018-01-12T16:10:06.651Z,0
2018-01-12T16:11:16.806Z,0
2018-01-12T16:12:27.044Z,0
2018-01-12T16:13:37.206Z,0
2018-01-12T16:14:47.375Z,0
2018-01-12T16:15:57.604Z,0
2018-01-12T16:17:07.759Z,0
2018-01-12T16:18:17.982Z,0
2018-01-12T16:19:28.127Z,0
2018-01-12T16:20:38.293Z,0
2018-01-12T16:21:48.501Z,0
2018-01-12T16:22:58.537Z,0
2018-01-12T16:24:08.777Z,0
2018-01-12T16:25:18.977Z,0
2018-01-12T16:26:29.192Z,0
2018-01-12T16:27:39.388Z,0
2018-01-12T16:28:49.619Z,0
2018-01-12T16:29:59.885Z,0
2018-01-12T16:31:10.198Z,0
2018-01-12T16:32:20.358Z,0
2018-01-12T16:33:30.567Z,0